createdAt,value
2016-03-29T00:00:21.942Z,5.48
2016-03-29T00:01:22.820Z,5.46
2016-03-29T00:02:22.089Z,5.55
2016-03-29T00:03:22.248Z,5.42
2016-03-29T00:04:22.704Z,5.48
2016-03-29T00:05:22.614Z,5.45
2016-03-29T00:06:21.991Z,5.48
2016-03-29T00:07:31.384Z,5.52
2016-03-29T00:08:22.449Z,5.54
2016-03-29T00:09:21.780Z,5.54
2016-03-29T00:10:22.016Z,5.51
2016-03-29T00:11:21.676Z,5.48
2016-03-29T00:12:21.866Z,5.44
2016-03-29T00:13:21.853Z,5.46
2016-03-29T00:15:22.218Z,5.34
2016-03-29T00:16:22.360Z,5.33
2016-03-29T00:17:22.082Z,5.33
2016-03-29T00:18:21.679Z,5.34
2016-03-29T00:19:21.869Z,5.36
2016-03-29T00:20:22.106Z,5.27
2016-03-29T00:21:22.046Z,5.26
2016-03-29T00:22:22.549Z,5.21
2016-03-29T00:23:22.457Z,5.15
2016-03-29T00:24:22.102Z,5.16
2016-03-29T00:25:22.245Z,5.15
2016-03-29T00:26:22.045Z,5.13
2016-03-29T00:27:22.609Z,5.21
2016-03-29T00:28:22.346Z,5.16
2016-03-29T00:29:21.412Z,5.09
2016-03-29T00:30:18.914Z,5.09
2016-03-29T00:31:22.167Z,5.05
2016-03-29T00:32:21.794Z,5.02
2016-03-29T00:33:21.970Z,5.03
2016-03-29T00:34:22.159Z,5.05
2016-03-29T00:36:22.056Z,5.02
2016-03-29T00:38:30.936Z,4.92
2016-03-29T00:39:22.094Z,5
2016-03-29T00:40:21.598Z,4.94
2016-03-29T00:41:22.147Z,5.02
2016-03-29T00:42:22.322Z,5.05
2016-03-29T00:43:30.496Z,5.09
2016-03-29T00:44:23.061Z,5.13
2016-03-29T00:45:22.205Z,5.15
2016-03-29T00:46:22.207Z,5.23
2016-03-29T00:48:22.182Z,5.34
2016-03-29T00:49:22.013Z,5.36
2016-03-29T00:51:21.940Z,5.33
2016-03-29T00:52:21.536Z,5.39
2016-03-29T00:53:30.632Z,5.37
2016-03-29T00:55:30.638Z,5.37
2016-03-29T00:58:21.396Z,5.34
2016-03-29T00:59:21.493Z,5.42
2016-03-29T01:03:21.440Z,5.36
2016-03-29T01:04:21.897Z,5.33
2016-03-29T01:05:22.070Z,5.36
2016-03-29T01:06:22.011Z,5.34
2016-03-29T01:07:30.686Z,5.34
2016-03-29T01:09:21.899Z,5.37
2016-03-29T01:10:21.542Z,5.31
2016-03-29T01:11:21.561Z,5.16
2016-03-29T01:12:21.407Z,5.23
2016-03-29T01:13:21.394Z,5.28
2016-03-29T01:14:18.335Z,5.28
2016-03-29T01:15:21.119Z,5.23
2016-03-29T01:16:21.215Z,5.2
2016-03-29T01:17:20.936Z,5.18
2016-03-29T01:18:21.314Z,5.18
2016-03-29T01:19:21.145Z,5.12
2016-03-29T01:20:22.319Z,5.2
2016-03-29T01:21:21.275Z,5.12
2016-03-29T01:22:21.372Z,5.15
2016-03-29T01:23:18.234Z,5.13
2016-03-29T01:24:21.580Z,5.15
2016-03-29T01:26:22.695Z,5.27
2016-03-29T01:27:18.401Z,5.21
2016-03-29T01:28:30.231Z,5.24
2016-03-29T01:29:21.640Z,5.37
2016-03-29T01:31:22.005Z,5.41
2016-03-29T01:32:18.211Z,5.41
2016-03-29T01:33:18.136Z,5.51
2016-03-29T01:34:18.217Z,5.52
2016-03-29T01:35:21.391Z,5.63
2016-03-29T01:36:17.893Z,5.62
2016-03-29T01:37:17.864Z,5.66
2016-03-29T01:38:18.539Z,5.75
2016-03-29T01:39:21.183Z,5.75
2016-03-29T01:40:18.091Z,5.87
2016-03-29T01:41:31.922Z,5.73
2016-03-29T01:43:18.022Z,5.82
2016-03-29T01:44:18.274Z,5.82
2016-03-29T01:45:21.152Z,5.72
2016-03-29T01:46:19.108Z,5.75
2016-03-29T01:47:17.985Z,5.67
2016-03-29T01:48:19.082Z,5.8
2016-03-29T01:49:20.006Z,5.77
2016-03-29T01:50:20.619Z,5.8
2016-03-29T01:51:20.793Z,5.78
2016-03-29T01:52:21.265Z,5.75
2016-03-29T01:53:29.502Z,5.87
2016-03-29T01:56:21.040Z,5.85
2016-03-29T01:57:21.263Z,5.91
2016-03-29T02:00:21.098Z,5.98
2016-03-29T02:01:34.539Z,5.96
2016-03-29T02:02:20.901Z,6
2016-03-29T02:03:21.216Z,5.96
2016-03-29T02:04:17.875Z,6.06
2016-03-29T02:05:21.144Z,6.09
2016-03-29T02:06:20.881Z,6.05
2016-03-29T02:07:20.367Z,6.09
2016-03-29T02:08:21.183Z,6.13
2016-03-29T02:09:20.951Z,6.06
2016-03-29T02:10:32.220Z,6.13
2016-03-29T02:11:21.160Z,6.06
2016-03-29T02:12:21.333Z,6.13
2016-03-29T02:13:20.133Z,6.09
2016-03-29T02:14:29.636Z,6.07
2016-03-29T02:15:39.592Z,6.1
2016-03-29T02:16:22.033Z,6.17
2016-03-29T02:17:20.817Z,6.02
2016-03-29T02:18:20.772Z,6
2016-03-29T02:19:20.727Z,6.05
2016-03-29T02:20:20.496Z,6.07
2016-03-29T02:21:20.468Z,6.05
2016-03-29T02:24:20.459Z,5.96
2016-03-29T02:25:20.760Z,5.91
2016-03-29T02:26:20.590Z,5.88
2016-03-29T02:27:20.515Z,5.95
2016-03-29T02:29:20.583Z,5.91
2016-03-29T02:30:31.476Z,5.75
2016-03-29T02:31:20.853Z,5.78
2016-03-29T02:32:20.841Z,5.7
2016-03-29T02:33:20.531Z,5.6
2016-03-29T02:34:20.503Z,5.54
2016-03-29T02:36:29.570Z,5.42
2016-03-29T02:37:20.511Z,5.46
2016-03-29T02:39:20.781Z,5.27
2016-03-29T02:40:20.753Z,5.15
2016-03-29T02:41:21.053Z,5.09
2016-03-29T02:42:20.414Z,5.18
2016-03-29T02:43:20.417Z,5.09
2016-03-29T02:44:20.920Z,5.03
2016-03-29T02:45:20.470Z,4.98
2016-03-29T02:46:19.988Z,4.91
2016-03-29T02:47:19.943Z,4.87
2016-03-29T02:49:20.808Z,4.69
2016-03-29T02:50:20.155Z,4.66
2016-03-29T02:51:20.893Z,4.56
2016-03-29T02:52:20.630Z,4.53
2016-03-29T02:53:20.413Z,4.5
2016-03-29T02:54:19.978Z,4.53
2016-03-29T02:55:20.403Z,4.44
2016-03-29T02:56:20.562Z,4.46
2016-03-29T02:57:20.252Z,4.4
2016-03-29T02:58:20.395Z,4.44
2016-03-29T02:59:20.148Z,4.44
2016-03-29T03:00:20.104Z,4.38
2016-03-29T03:01:19.935Z,4.33
2016-03-29T03:02:20.422Z,4.38
2016-03-29T03:03:19.706Z,4.36
2016-03-29T03:04:28.428Z,4.3
2016-03-29T03:05:19.805Z,4.3
2016-03-29T03:06:46.683Z,4.26
2016-03-29T03:08:18.829Z,4.17
2016-03-29T03:09:51.456Z,4.18
2016-03-29T03:11:27.477Z,4.11
2016-03-29T03:12:47.183Z,4.04
2016-03-29T03:14:14.438Z,3.96
2016-03-29T03:15:44.878Z,4
2016-03-29T03:17:11.446Z,3.89
2016-03-29T03:18:40.324Z,3.89
2016-03-29T03:20:51.782Z,4
2016-03-29T03:21:51.894Z,4.02
2016-03-29T03:22:51.881Z,4.11
2016-03-29T03:23:51.947Z,4.11
2016-03-29T03:24:51.809Z,4.17
2016-03-29T03:25:51.655Z,4.15
2016-03-29T03:26:52.018Z,4.21
2016-03-29T03:28:03.082Z,4.22
2016-03-29T03:29:51.494Z,4.26
2016-03-29T03:30:51.934Z,4.3
2016-03-29T03:31:51.515Z,4.29
2016-03-29T03:33:51.598Z,4.39
2016-03-29T03:34:51.383Z,4.47
2016-03-29T03:35:51.370Z,4.46
2016-03-29T03:36:51.356Z,4.48
2016-03-29T03:37:51.720Z,4.46
2016-03-29T03:39:52.084Z,4.46
2016-03-29T03:40:51.352Z,4.48
2016-03-29T03:42:51.326Z,4.46
2016-03-29T03:43:52.000Z,4.46
2016-03-29T03:44:51.206Z,4.5
2016-03-29T03:45:59.505Z,4.46
2016-03-29T03:46:51.337Z,4.47
2016-03-29T03:47:51.683Z,4.44
2016-03-29T03:49:00.686Z,4.46
2016-03-29T03:49:48.392Z,4.51
2016-03-29T03:50:48.472Z,4.56
2016-03-29T03:51:50.929Z,4.48
2016-03-29T03:52:51.681Z,4.54
2016-03-29T03:53:50.747Z,4.46
2016-03-29T03:54:51.468Z,4.5
2016-03-29T03:56:02.532Z,4.6
2016-03-29T03:56:52.848Z,4.6
2016-03-29T03:57:51.460Z,4.61
2016-03-29T03:58:54.212Z,4.6
2016-03-29T03:59:51.747Z,4.48
2016-03-29T04:00:51.437Z,4.5
2016-03-29T04:01:51.206Z,4.56
2016-03-29T04:02:51.239Z,4.48
2016-03-29T04:03:51.132Z,4.56
2016-03-29T04:04:51.182Z,4.51
2016-03-29T04:05:51.075Z,4.53
2016-03-29T04:07:51.142Z,4.5
2016-03-29T04:08:48.256Z,4.58
2016-03-29T04:09:47.883Z,4.51
2016-03-29T04:10:51.151Z,4.47
2016-03-29T04:11:51.264Z,4.53
2016-03-29T04:13:50.941Z,4.53
2016-03-29T04:14:51.116Z,4.54
2016-03-29T04:15:50.914Z,4.48
2016-03-29T04:16:50.839Z,4.48
2016-03-29T04:17:50.935Z,4.42
2016-03-29T04:18:51.314Z,4.5
2016-03-29T04:19:50.894Z,4.5
2016-03-29T04:21:02.897Z,4.51
2016-03-29T04:22:50.762Z,4.53
2016-03-29T04:23:51.030Z,4.5
2016-03-29T04:24:51.392Z,4.51
2016-03-29T04:26:56.054Z,4.5
2016-03-29T04:27:50.354Z,4.42
2016-03-29T04:28:51.529Z,4.36
2016-03-29T04:29:48.140Z,4.36
2016-03-29T04:30:50.752Z,4.26
2016-03-29T04:31:47.552Z,4.3
2016-03-29T04:32:47.804Z,4.18
2016-03-29T04:33:47.292Z,4.12
2016-03-29T04:34:50.560Z,4.15
2016-03-29T04:35:50.015Z,4.2
2016-03-29T04:37:15.959Z,4.15
2016-03-29T04:38:37.726Z,4.22
2016-03-29T04:40:16.873Z,4.18
2016-03-29T04:41:59.735Z,4.28
2016-03-29T04:43:42.178Z,4.26
2016-03-29T04:45:20.699Z,4.3
2016-03-29T04:47:00.592Z,4.33
2016-03-29T04:48:33.300Z,4.44
2016-03-29T04:50:01.038Z,4.47
2016-03-29T04:51:32.324Z,4.39
2016-03-29T04:53:02.514Z,4.48
2016-03-29T04:54:25.270Z,4.47
2016-03-29T04:55:45.429Z,4.47
2016-03-29T04:57:07.900Z,4.39
2016-03-29T04:58:29.610Z,4.48
2016-03-29T04:59:53.408Z,4.48
2016-03-29T05:01:14.632Z,4.48
2016-03-29T05:02:39.276Z,4.51
2016-03-29T05:04:05.091Z,4.51
2016-03-29T05:05:32.548Z,4.53
2016-03-29T05:06:05.330Z,4.56
2016-03-29T05:07:05.521Z,4.51
2016-03-29T05:08:05.179Z,4.53
2016-03-29T05:09:05.276Z,4.54
2016-03-29T05:10:05.498Z,4.46
2016-03-29T05:11:05.532Z,4.42
2016-03-29T05:12:05.487Z,4.36
2016-03-29T05:13:05.317Z,4.38
2016-03-29T05:14:06.978Z,4.35
2016-03-29T05:15:05.136Z,4.4
2016-03-29T05:16:05.185Z,4.28
2016-03-29T05:17:05.375Z,4.3
2016-03-29T05:18:05.488Z,4.33
2016-03-29T05:19:06.350Z,4.3
2016-03-29T05:20:05.368Z,4.46
2016-03-29T05:21:05.637Z,4.47
2016-03-29T05:22:06.171Z,4.51
2016-03-29T05:24:05.160Z,4.51
2016-03-29T05:25:05.069Z,4.53
2016-03-29T05:26:04.838Z,4.64
2016-03-29T05:27:05.027Z,4.61
2016-03-29T05:28:05.077Z,4.65
2016-03-29T05:29:14.443Z,4.68
2016-03-29T05:30:05.489Z,4.65
2016-03-29T05:31:05.102Z,4.74
2016-03-29T05:32:04.651Z,4.72
2016-03-29T05:33:04.888Z,4.79
2016-03-29T05:34:04.374Z,4.75
2016-03-29T05:35:05.268Z,4.75
2016-03-29T05:36:05.989Z,4.84
2016-03-29T05:37:06.462Z,4.69
2016-03-29T05:38:04.948Z,4.74
2016-03-29T05:39:04.575Z,4.75
2016-03-29T05:40:04.781Z,4.79
2016-03-29T05:41:06.300Z,4.66
2016-03-29T05:43:05.617Z,4.71
2016-03-29T05:44:04.933Z,4.64
2016-03-29T05:45:04.919Z,4.5
2016-03-29T05:46:13.456Z,4.4
2016-03-29T05:47:05.972Z,4.47
2016-03-29T05:48:04.647Z,4.39
2016-03-29T05:49:04.977Z,4.44
2016-03-29T05:50:05.292Z,4.42
2016-03-29T05:51:04.654Z,4.4
2016-03-29T05:52:05.423Z,4.51
2016-03-29T05:53:05.363Z,4.5
2016-03-29T05:54:04.397Z,4.5
2016-03-29T05:55:04.931Z,4.51
2016-03-29T05:56:04.341Z,4.44
2016-03-29T05:57:04.780Z,4.64
2016-03-29T05:58:04.079Z,4.65
2016-03-29T05:59:04.832Z,4.74
2016-03-29T06:00:05.554Z,4.79
2016-03-29T06:01:05.525Z,4.79
2016-03-29T06:02:05.559Z,4.92
2016-03-29T06:03:13.721Z,4.9
2016-03-29T06:04:05.643Z,4.87
2016-03-29T06:05:05.443Z,4.78
2016-03-29T06:06:05.585Z,4.87
2016-03-29T06:07:04.026Z,4.83
2016-03-29T06:08:04.545Z,4.85
2016-03-29T06:09:04.593Z,4.9
2016-03-29T06:10:04.194Z,4.92
2016-03-29T06:11:04.134Z,4.88
2016-03-29T06:12:04.294Z,4.91
2016-03-29T06:13:05.093Z,4.95
2016-03-29T06:14:04.080Z,4.91
2016-03-29T06:15:04.896Z,4.9
2016-03-29T06:16:05.741Z,4.94
2016-03-29T06:17:05.260Z,4.97
2016-03-29T06:18:05.012Z,4.92
2016-03-29T06:19:04.360Z,5
2016-03-29T06:20:04.440Z,5.06
2016-03-29T06:21:04.427Z,5.09
2016-03-29T06:22:05.492Z,4.97
2016-03-29T06:23:03.963Z,5.02
2016-03-29T06:24:05.153Z,5.08
2016-03-29T06:25:04.375Z,5.05
2016-03-29T06:27:04.193Z,5.09
2016-03-29T06:28:05.258Z,5.08
2016-03-29T06:29:05.308Z,5.13
2016-03-29T06:30:05.560Z,5.12
2016-03-29T06:31:04.329Z,5.15
2016-03-29T06:32:05.159Z,5.15
2016-03-29T06:33:05.209Z,5.15
2016-03-29T06:34:04.524Z,5.12
2016-03-29T06:35:03.902Z,5.28
2016-03-29T06:36:05.389Z,5.23
2016-03-29T06:37:04.282Z,5.34
2016-03-29T06:38:04.301Z,5.34
2016-03-29T06:39:05.178Z,5.44
2016-03-29T06:40:03.994Z,5.39
2016-03-29T06:41:05.433Z,5.37
2016-03-29T06:42:04.139Z,5.37
2016-03-29T06:43:04.142Z,5.36
2016-03-29T06:44:05.379Z,5.33
2016-03-29T06:45:05.116Z,5.34
2016-03-29T06:46:03.821Z,5.45
2016-03-29T06:47:03.513Z,5.39
2016-03-29T06:48:04.546Z,5.41
2016-03-29T06:49:05.080Z,5.51
2016-03-29T06:50:04.365Z,5.51
2016-03-29T06:51:04.945Z,5.45
2016-03-29T06:52:03.713Z,5.46
2016-03-29T06:53:04.060Z,5.41
2016-03-29T06:54:04.813Z,5.28
2016-03-29T06:55:03.994Z,5.21
2016-03-29T06:56:03.385Z,5.2
2016-03-29T06:57:03.997Z,5.15
2016-03-29T06:58:03.529Z,5.06
2016-03-29T06:59:07.218Z,5.02
2016-03-29T07:00:07.083Z,5.02
2016-03-29T07:01:06.766Z,5
2016-03-29T07:02:03.341Z,4.95
2016-03-29T07:03:07.087Z,4.9
2016-03-29T07:04:07.397Z,4.94
2016-03-29T07:06:06.787Z,5.87
2016-03-29T07:07:06.740Z,6.72
2016-03-29T07:08:06.803Z,7.44
2016-03-29T07:09:06.726Z,7.73
2016-03-29T07:10:04.055Z,7.78
2016-03-29T07:11:03.838Z,7.56
2016-03-29T07:12:06.324Z,7.54
2016-03-29T07:13:06.420Z,7.54
2016-03-29T07:14:07.454Z,7.33
2016-03-29T07:15:03.361Z,7.39
2016-03-29T07:16:03.629Z,7.51
2016-03-29T07:17:07.335Z,7.37
2016-03-29T07:18:06.649Z,7.16
2016-03-29T07:19:06.262Z,6.98
2016-03-29T07:20:06.389Z,7.03
2016-03-29T07:21:03.610Z,6.93
2016-03-29T07:22:03.348Z,6.75
2016-03-29T07:24:06.742Z,7.03
2016-03-29T07:25:05.418Z,7.21
2016-03-29T07:26:06.296Z,7.48
2016-03-29T07:27:03.455Z,7.86
2016-03-29T07:28:03.426Z,8.04
2016-03-29T07:29:03.225Z,8.09
2016-03-29T07:30:06.619Z,8.17
2016-03-29T07:31:03.028Z,8.03
2016-03-29T07:32:06.405Z,7.8
2016-03-29T07:33:03.252Z,7.51
2016-03-29T07:34:03.380Z,7.3
2016-03-29T07:35:03.632Z,7.03
2016-03-29T07:36:03.525Z,6.75
2016-03-29T07:37:03.669Z,6.55
2016-03-29T07:38:06.406Z,6.46
2016-03-29T07:39:03.175Z,6.61
2016-03-29T07:40:06.786Z,6.62
2016-03-29T07:42:03.636Z,6.82
2016-03-29T07:43:03.607Z,6.91
2016-03-29T07:44:03.672Z,6.94
2016-03-29T07:45:03.565Z,6.9
2016-03-29T07:46:03.662Z,6.85
2016-03-29T07:47:04.774Z,6.88
2016-03-29T07:48:05.027Z,6.93
2016-03-29T07:49:05.779Z,7.01
2016-03-29T07:50:06.268Z,7.01
2016-03-29T07:51:03.473Z,7
2016-03-29T07:52:03.226Z,7
2016-03-29T07:53:04.087Z,7.03
2016-03-29T07:54:06.279Z,6.95
2016-03-29T07:55:04.499Z,7.03
2016-03-29T07:56:05.611Z,6.83
2016-03-29T07:57:05.958Z,6.68
2016-03-29T07:58:06.804Z,6.67
2016-03-29T07:59:06.479Z,6.67
2016-03-29T08:00:06.310Z,6.73
2016-03-29T08:01:06.234Z,6.68
2016-03-29T08:02:06.206Z,6.76
2016-03-29T08:04:06.211Z,6.83
2016-03-29T08:05:14.636Z,6.83
2016-03-29T08:06:06.123Z,6.7
2016-03-29T08:07:07.298Z,6.61
2016-03-29T08:08:05.956Z,6.55
2016-03-29T08:09:05.881Z,6.57
2016-03-29T08:10:06.931Z,6.58
2016-03-29T08:11:05.870Z,6.55
2016-03-29T08:12:06.108Z,6.62
2016-03-29T08:13:06.141Z,6.57
2016-03-29T08:14:06.050Z,6.61
2016-03-29T08:15:06.147Z,6.67
2016-03-29T08:16:06.197Z,6.65
2016-03-29T08:17:05.762Z,6.75
2016-03-29T08:18:05.827Z,6.68
2016-03-29T08:19:06.424Z,6.8
2016-03-29T08:20:06.269Z,6.79
2016-03-29T08:21:06.772Z,6.9
2016-03-29T08:22:05.541Z,6.91
2016-03-29T08:23:06.044Z,6.86
2016-03-29T08:24:05.641Z,6.85
2016-03-29T08:25:05.674Z,6.9
2016-03-29T08:26:06.052Z,6.83
2016-03-29T08:27:07.179Z,6.8
2016-03-29T08:28:06.166Z,6.79
2016-03-29T08:29:05.654Z,6.78
2016-03-29T08:30:05.985Z,6.9
2016-03-29T08:31:19.987Z,6.91
2016-03-29T08:32:05.709Z,7.08
2016-03-29T08:33:05.976Z,7.36
2016-03-29T08:34:06.042Z,7.51
2016-03-29T08:35:06.420Z,7.83
2016-03-29T08:36:05.501Z,7.91
2016-03-29T08:37:05.879Z,7.99
2016-03-29T08:38:06.287Z,8.14
2016-03-29T08:39:19.196Z,8.1
2016-03-29T08:40:05.933Z,8.25
2016-03-29T08:41:05.576Z,8.31
2016-03-29T08:42:06.564Z,8.39
2016-03-29T08:43:05.878Z,8.43
2016-03-29T08:44:06.444Z,8.32
2016-03-29T08:45:06.086Z,8.34
2016-03-29T08:47:05.467Z,8.07
2016-03-29T08:48:05.611Z,8.03
2016-03-29T08:49:05.786Z,8.03
2016-03-29T08:50:05.788Z,7.96
2016-03-29T08:51:05.807Z,7.77
2016-03-29T08:52:05.684Z,7.85
2016-03-29T08:53:17.281Z,7.8
2016-03-29T08:54:05.408Z,7.89
2016-03-29T08:55:06.052Z,8.1
2016-03-29T08:56:06.086Z,8.21
2016-03-29T08:57:05.494Z,8.39
2016-03-29T08:58:05.560Z,8.5
2016-03-29T08:59:05.657Z,8.69
2016-03-29T09:00:05.690Z,8.89
2016-03-29T09:01:02.677Z,9.01
2016-03-29T09:02:06.304Z,8.9
2016-03-29T09:03:05.760Z,8.92
2016-03-29T09:04:06.701Z,8.86
2016-03-29T09:05:05.641Z,9.01
2016-03-29T09:07:02.851Z,8.8
2016-03-29T09:08:02.291Z,8.57
2016-03-29T09:09:02.262Z,8.53
2016-03-29T09:10:02.202Z,8.64
2016-03-29T09:11:02.143Z,8.82
2016-03-29T09:12:04.926Z,8.98
2016-03-29T09:13:02.835Z,9.14
2016-03-29T09:14:03.634Z,9.35
2016-03-29T09:15:02.247Z,9.27
2016-03-29T09:16:04.453Z,9.12
2016-03-29T09:17:03.518Z,8.98
2016-03-29T09:18:11.568Z,8.87
2016-03-29T09:19:02.445Z,8.92
2016-03-29T09:20:02.432Z,8.86
2016-03-29T09:21:03.872Z,8.76
2016-03-29T09:22:02.235Z,8.64
2016-03-29T09:23:03.284Z,8.64
2016-03-29T09:24:03.381Z,8.77
2016-03-29T09:25:03.384Z,8.83
2016-03-29T09:26:03.386Z,8.95
2016-03-29T09:27:03.592Z,8.89
2016-03-29T09:28:01.860Z,8.85
2016-03-29T09:29:04.253Z,8.64
2016-03-29T09:30:02.349Z,8.47
2016-03-29T09:31:02.961Z,8.28
2016-03-29T09:32:02.199Z,8.28
2016-03-29T09:33:02.639Z,8.22
2016-03-29T09:34:02.314Z,8.19
2016-03-29T09:35:03.239Z,8.19
2016-03-29T09:36:02.022Z,8.29
2016-03-29T09:37:02.103Z,8.34
2016-03-29T09:38:01.996Z,8.49
2016-03-29T09:39:02.296Z,8.47
2016-03-29T09:40:02.080Z,8.71
2016-03-29T09:41:10.363Z,8.61
2016-03-29T09:42:01.835Z,8.71
2016-03-29T09:43:03.009Z,8.76
2016-03-29T09:44:02.168Z,8.67
2016-03-29T09:45:02.312Z,8.62
2016-03-29T09:46:02.023Z,8.52
2016-03-29T09:47:02.807Z,8.58
2016-03-29T09:49:01.937Z,8.4
2016-03-29T09:50:02.486Z,8.35
2016-03-29T09:51:01.973Z,8.29
2016-03-29T09:52:02.539Z,8.21
2016-03-29T09:53:01.947Z,8.21
2016-03-29T09:54:01.623Z,8.34
2016-03-29T09:55:02.078Z,8.17
2016-03-29T09:56:02.441Z,8.21
2016-03-29T09:57:03.631Z,8.19
2016-03-29T09:58:02.867Z,8.35
2016-03-29T09:59:03.214Z,8.32
2016-03-29T10:00:03.216Z,8.43
2016-03-29T10:01:03.032Z,8.31
2016-03-29T10:02:01.815Z,8.32
2016-03-29T10:03:03.224Z,8.4
2016-03-29T10:04:01.883Z,8.43
2016-03-29T10:05:04.292Z,8.43
2016-03-29T10:06:02.077Z,8.46
2016-03-29T10:07:03.188Z,8.44
2016-03-29T10:08:03.676Z,8.71
2016-03-29T10:09:02.772Z,8.67
2016-03-29T10:10:02.884Z,8.71
2016-03-29T10:11:02.199Z,8.82
2016-03-29T10:12:02.623Z,9
2016-03-29T10:13:02.612Z,8.97
2016-03-29T10:14:02.832Z,8.83
2016-03-29T10:15:02.429Z,8.94
2016-03-29T10:16:02.463Z,8.87
2016-03-29T10:17:02.762Z,8.69
2016-03-29T10:18:01.984Z,8.6
2016-03-29T10:19:02.878Z,8.5
2016-03-29T10:20:02.692Z,8.62
2016-03-29T10:21:02.461Z,8.53
2016-03-29T10:22:02.353Z,8.49
2016-03-29T10:23:02.372Z,8.47
2016-03-29T10:24:02.141Z,8.61
2016-03-29T10:25:01.565Z,8.64
2016-03-29T10:26:01.600Z,8.6
2016-03-29T10:27:01.867Z,8.72
2016-03-29T10:28:02.480Z,8.8
2016-03-29T10:29:02.700Z,8.92
2016-03-29T10:30:02.750Z,9
2016-03-29T10:31:01.659Z,9
2016-03-29T10:32:02.646Z,9.05
2016-03-29T10:33:02.993Z,9.01
2016-03-29T10:35:02.123Z,8.89
2016-03-29T10:36:02.751Z,9.01
2016-03-29T10:37:02.003Z,8.97
2016-03-29T10:38:02.021Z,8.76
2016-03-29T10:39:02.868Z,8.74
2016-03-29T10:40:01.543Z,8.58
2016-03-29T10:41:01.796Z,8.49
2016-03-29T10:42:02.829Z,8.46
2016-03-29T10:43:02.801Z,8.31
2016-03-29T10:44:02.756Z,8.28
2016-03-29T10:45:01.853Z,8.04
2016-03-29T10:46:02.590Z,8.1
2016-03-29T10:47:01.514Z,8.06
2016-03-29T10:48:02.798Z,8.17
2016-03-29T10:49:10.379Z,8.19
2016-03-29T10:50:01.444Z,8.31
2016-03-29T10:51:01.713Z,8.32
2016-03-29T10:52:03.575Z,8.44
2016-03-29T10:53:01.359Z,8.47
2016-03-29T10:54:01.377Z,8.58
2016-03-29T10:55:01.646Z,8.71
2016-03-29T10:56:01.523Z,8.71
2016-03-29T10:57:01.417Z,8.71
2016-03-29T10:58:02.685Z,8.65
2016-03-29T10:59:01.970Z,8.64
2016-03-29T11:00:02.191Z,8.67
2016-03-29T11:01:03.522Z,8.64
2016-03-29T11:02:01.024Z,8.62
2016-03-29T11:03:01.605Z,8.67
2016-03-29T11:04:01.217Z,8.64
2016-03-29T11:05:02.001Z,8.64
2016-03-29T11:06:02.097Z,8.54
2016-03-29T11:07:01.990Z,8.54
2016-03-29T11:08:02.352Z,8.47
2016-03-29T11:09:01.293Z,8.43
2016-03-29T11:10:02.921Z,8.29
2016-03-29T11:11:02.282Z,8.19
2016-03-29T11:12:01.770Z,8.17
2016-03-29T11:13:02.554Z,8.22
2016-03-29T11:14:02.775Z,8.16
2016-03-29T11:15:02.590Z,8.17
2016-03-29T11:16:02.623Z,8.31
2016-03-29T11:17:01.236Z,8.4
2016-03-29T11:18:02.176Z,8.58
2016-03-29T11:19:01.851Z,8.79
2016-03-29T11:20:02.495Z,8.85
2016-03-29T11:21:02.044Z,8.94
2016-03-29T11:22:02.843Z,8.79
2016-03-29T11:23:02.675Z,8.89
2016-03-29T11:25:02.648Z,8.9
2016-03-29T11:26:01.917Z,9.04
2016-03-29T11:27:01.576Z,9.14
2016-03-29T11:28:00.829Z,9.05
2016-03-29T11:29:01.894Z,8.97
2016-03-29T11:30:02.428Z,8.98
2016-03-29T11:31:02.336Z,9.01
2016-03-29T11:32:02.214Z,9
2016-03-29T11:33:02.327Z,8.97
2016-03-29T11:34:02.266Z,8.9
2016-03-29T11:35:01.535Z,8.89
2016-03-29T11:36:01.880Z,8.87
2016-03-29T11:37:55.902Z,8.8
2016-03-29T11:39:44.702Z,8.82
2016-03-29T11:41:29.144Z,8.95
2016-03-29T11:43:16.884Z,8.87
2016-03-29T11:45:06.170Z,9.01
2016-03-29T11:46:51.707Z,9.3
2016-03-29T11:48:40.412Z,9.57
2016-03-29T11:50:40.325Z,9.77
2016-03-29T11:52:43.627Z,10.11
2016-03-29T11:54:51.401Z,10.35
2016-03-29T11:57:21.203Z,10.35
2016-03-29T11:59:55.227Z,10.29
2016-03-29T12:02:22.014Z,9.93
2016-03-29T12:05:00.396Z,9.74
2016-03-29T12:06:43.165Z,9.74
2016-03-29T12:07:12.337Z,9.63
2016-03-29T12:08:21.949Z,9.7
2016-03-29T12:09:23.170Z,9.55
2016-03-29T12:10:12.876Z,9.55
2016-03-29T12:11:12.894Z,9.52
2016-03-29T12:12:12.318Z,9.6
2016-03-29T12:13:13.368Z,9.6
2016-03-29T12:14:12.698Z,9.41
2016-03-29T12:15:12.670Z,9.5
2016-03-29T12:16:12.877Z,9.44
2016-03-29T12:17:12.301Z,9.19
2016-03-29T12:18:13.022Z,9.11
2016-03-29T12:19:12.462Z,8.95
2016-03-29T12:20:12.871Z,8.94
2016-03-29T12:21:13.030Z,8.83
2016-03-29T12:22:12.486Z,8.83
2016-03-29T12:23:12.833Z,8.8
2016-03-29T12:24:13.617Z,8.83
2016-03-29T12:25:15.932Z,9.01
2016-03-29T12:26:15.575Z,9.03
2016-03-29T12:27:15.250Z,9.2
2016-03-29T12:28:15.675Z,9.37
2016-03-29T12:29:23.677Z,9.55
2016-03-29T12:30:15.414Z,9.66
2016-03-29T12:31:15.792Z,9.84
2016-03-29T12:33:15.672Z,10.11
2016-03-29T12:34:16.050Z,10.32
2016-03-29T12:35:16.177Z,10.39
2016-03-29T12:36:15.727Z,10.46
2016-03-29T12:37:15.479Z,10.36
2016-03-29T12:38:15.482Z,10.18
2016-03-29T12:39:16.032Z,10.02
2016-03-29T12:40:15.800Z,9.99
2016-03-29T12:41:15.553Z,9.93
2016-03-29T12:42:15.196Z,9.95
2016-03-29T12:43:15.480Z,9.92
2016-03-29T12:44:15.687Z,9.78
2016-03-29T12:45:16.049Z,9.9
2016-03-29T12:46:15.567Z,9.85
2016-03-29T12:47:15.601Z,9.93
2016-03-29T12:48:16.088Z,9.93
2016-03-29T12:49:15.731Z,9.92
2016-03-29T12:50:15.687Z,9.89
2016-03-29T12:51:15.549Z,9.81
2016-03-29T12:52:15.458Z,9.74
2016-03-29T12:53:15.679Z,9.74
2016-03-29T12:54:15.275Z,9.62
2016-03-29T12:55:15.512Z,9.52
2016-03-29T12:56:15.547Z,9.32
2016-03-29T12:57:15.549Z,9.21
2016-03-29T12:58:15.708Z,9.08
2016-03-29T12:59:15.492Z,9.04
2016-03-29T13:00:15.197Z,8.95
2016-03-29T13:01:15.560Z,8.82
2016-03-29T13:02:15.296Z,8.67
2016-03-29T13:03:50.865Z,8.67
2016-03-29T13:05:31.227Z,8.72
2016-03-29T13:06:58.998Z,8.94
2016-03-29T13:08:46.907Z,9.04
2016-03-29T13:10:42.741Z,9.23
2016-03-29T13:12:57.124Z,9.39
2016-03-29T13:14:54.160Z,9.48
2016-03-29T13:16:58.071Z,9.47
2016-03-29T13:19:04.577Z,9.37
2016-03-29T13:21:07.817Z,9.45
2016-03-29T13:23:34.009Z,9.57
2016-03-29T13:25:53.377Z,9.71
2016-03-29T13:27:58.679Z,9.66
2016-03-29T13:30:13.888Z,9.8
2016-03-29T13:32:41.408Z,9.92
2016-03-29T13:32:58.864Z,9.81
2016-03-29T13:33:59.196Z,9.74
2016-03-29T13:34:59.682Z,9.71
2016-03-29T13:35:58.826Z,9.59
2016-03-29T13:36:59.000Z,9.52
2016-03-29T13:37:59.018Z,9.5
2016-03-29T13:39:32.318Z,9.39
2016-03-29T13:41:04.745Z,9.3
2016-03-29T13:42:32.779Z,9.12
2016-03-29T13:44:08.315Z,9.09
2016-03-29T13:45:41.928Z,9
2016-03-29T13:47:12.027Z,9.04
2016-03-29T13:48:38.639Z,9.2
2016-03-29T13:50:14.317Z,9.35
2016-03-29T13:51:46.632Z,9.48
2016-03-29T13:53:24.965Z,9.47
2016-03-29T13:54:54.377Z,9.52
2016-03-29T13:56:21.833Z,9.47
2016-03-29T13:57:50.648Z,9.53
2016-03-29T13:59:23.341Z,9.5
2016-03-29T14:00:54.689Z,9.55
2016-03-29T14:02:30.567Z,9.57
2016-03-29T14:04:06.588Z,9.71
2016-03-29T14:05:38.841Z,9.74
2016-03-29T14:07:00.190Z,9.72
2016-03-29T14:08:32.422Z,9.72
2016-03-29T14:08:47.081Z,9.67
2016-03-29T14:09:48.504Z,9.71
2016-03-29T14:10:48.004Z,9.66
2016-03-29T14:11:47.562Z,9.63
2016-03-29T14:12:46.768Z,9.7
2016-03-29T14:13:47.740Z,9.66
2016-03-29T14:14:48.399Z,9.7
2016-03-29T14:15:48.729Z,9.66
2016-03-29T14:16:57.625Z,9.71
2016-03-29T14:17:48.031Z,9.67
2016-03-29T14:18:47.816Z,9.62
2016-03-29T14:19:46.944Z,9.55
2016-03-29T14:20:47.761Z,9.55
2016-03-29T14:21:46.950Z,9.5
2016-03-29T14:22:46.516Z,9.5
2016-03-29T14:23:46.269Z,9.48
2016-03-29T14:24:47.225Z,9.53
2016-03-29T14:25:46.368Z,9.56
2016-03-29T14:26:46.214Z,9.55
2016-03-29T14:28:47.173Z,9.38
2016-03-29T14:29:47.082Z,9.39
2016-03-29T14:30:47.538Z,9.3
2016-03-29T14:31:46.384Z,9.32
2016-03-29T14:32:46.012Z,9.2
2016-03-29T14:33:46.968Z,9.17
2016-03-29T14:34:46.595Z,9.2
2016-03-29T14:36:46.929Z,9
2016-03-29T14:37:46.478Z,9.03
2016-03-29T14:38:47.825Z,9.2
2016-03-29T14:39:47.124Z,9.24
2016-03-29T14:40:47.455Z,9.27
2016-03-29T14:41:46.583Z,9.24
2016-03-29T14:42:47.507Z,9.2
2016-03-29T14:43:46.057Z,9.21
2016-03-29T14:44:46.684Z,9.21
2016-03-29T14:45:46.265Z,9.17
2016-03-29T14:46:47.862Z,9.17
2016-03-29T14:47:46.302Z,9.23
2016-03-29T14:48:46.273Z,9.14
2016-03-29T14:49:47.292Z,9.29
2016-03-29T14:50:46.528Z,9.3
2016-03-29T14:51:46.422Z,9.3
2016-03-29T14:52:46.081Z,9.37
2016-03-29T14:53:46.224Z,9.45
2016-03-29T14:54:47.180Z,9.45
2016-03-29T14:55:45.980Z,9.48
2016-03-29T14:56:46.451Z,9.47
2016-03-29T14:57:46.047Z,9.45
2016-03-29T14:58:54.660Z,9.56
2016-03-29T14:59:46.069Z,9.47
2016-03-29T15:00:57.212Z,9.52
2016-03-29T15:01:46.902Z,9.48
2016-03-29T15:02:47.296Z,9.5
2016-03-29T15:03:46.923Z,9.53
2016-03-29T15:04:47.020Z,9.59